Aérodrome :
LOGIN :

S'inscrire | Disclaimer

   EN    FR    IT 

 










Légende :    VFR   VFR Marginal   IFR   IFR Intensif   IFR Très Intensif
Visi : 
Plafond : 
>= 8 km
>= 3000ft
5 à 8 km
1000 à 3000 ft
1500m à 5 km
500 à 1000 ft
800 à 1500m
200 à 500 ft
< 800m
< 200 ft
Symboles :   Orages  Brouillard  Fortes neiges  Fortes précipitations  Vent > 20 kt
SIGMETs :   Divers  Orages  Givrage  Turbulence  Onde Orograph.  Cendres Volcan.







- Altitude de l'aérodrome : 256 ft
- Code IATA : CFR
- Voir les cartes d'approche


LFRK - Caen

DERNIER METAR :
  • 192000Z AUTO 17016KT 8000 -RA FEW024/// BKN058/// BKN068/// ///TCU 14/13 Q1003 TEMPO 19025G40KT 3000 RA BKN012

METARs EXPIRÉS :
  • 191930Z AUTO 18017KT 6000 RA ///TCU 14/12 Q1003 TEMPO 19025G40KT 3000 RA BKN012
  • 191900Z AUTO 18018KT 9999 -RA ///CB 15/12 Q1004 TEMPO 19025G40KT 3000 RA BKN012
  • 191830Z AUTO 17012KT 9999 ///TCU 16/12 Q1003 TEMPO 19025G40KT 3000 RA BKN012
  • 191800Z AUTO 16009KT 130V190 9999 ///TCU 16/12 Q1003 BECMG 19020G30KT RA BKN030
  • 191730Z AUTO 17011KT CAVOK 16/12 Q1004 BECMG 19020G30KT RA

TAF TAF LFRK
Valide du 19 à 15h jusqu'au 20 à 00h UTC


191400Z 1915/1924 19015G25KT 9999 BKN020
BECMG 1915/1918 19020G30KT
BECMG 1918/1920 5000 RA BKN030
TEMPO 1920/1922 19025G40KT 3000 RA BKN012
BECMG 1921/1923 9999 NSW
Météo : +33 2 31 26 68 11
Pas de NOTAMs connus pour ce terrain.
3 SIGMETs publiés pour la FIR Brest (LFRR) :
 
Turbulence forte
LFRR SIGMET 8 VALID 192000/192300 LFPW
LFRR BREST FIR/UIR SEV TURB FCST WI N4930 W00115 - N4700 W00045 - N4630 W00245 - N4900 W00545 FL180/310 MOV NE 30KT NC=
Turbulence forte
LFRR SIGMET 7 VALID 191900/192300 LFPW
LFRR BREST FIR/UIR SEV TURB OBS WI N4915 W00700 - N5000 W00200 - N5000 W00015 - N4815 W00015 - N4630 W00215 - N4715 W00330 - N4830 W00315 - N4845 W00600 SFC/FL060 MOV NE 30KT NC=
Turbulence forte
LFRR SIGMET 6 VALID 191800/192200 LFPW
LFRR BREST FIR/UIR SEV TURB FCST WI N4545 W00145 - N4330 W00145 - N4400 W00330 - N4630 W00430 - N4645 W00215 FL220/310 MOV E 30KT WKN=



MET'MAP, la Météo Aéronautique d'un coup d'oeil ! - Copyright ORBIFLY Décembre 2007 - Disclaimer

ORBIFLY MET'MAP TEAM :

Programmation & Développement : Alexandra Zaïnal
Conception & Développement : Baudouin d'Aumeries
Co-Programmation & Développement : Marc-Olivier Méhu
Soutien technique & logistique : Manuel Goepfert

Contact : metmap@orbifly.com




SOURCES & CREDITS :

   NOAA